首页
METAR-TAF:

METAR-TAF

机场 :

哥伦布, 密西西比州, 美国

纬度: 33-39N, 经度: 088-27W, 海拔: 67米

当前天气观测

该预报发布于30分钟前的21:56 UTC
风速3节,风向
温度 10°C
湿度 43%
气压 1033 hPa
能見度: 16.1公里
天空无云

METAR: KCBM 112156Z AUTO 01003KT 10SM CLR 10/M02 A3049 RMK AO2 SLP329 T00961018 $

时间: 16:26 (22:26 UTC)

预报

该预报发布于5小时和26分钟前的17:00 UTC
预报有效从11日的 17点(UTC)到 12日的 23点(UTC)
风速6节,风向
能见度10公里或以上
天空无云
成为
从 12日的 14点(UTC)到 12日的 15点(UTC)
风速12节,风向东转东南,有时为18节阵风
能见度10公里或以上
天空无云
成为
从 12日的 21点(UTC)到 12日的 22点(UTC)
风速6节,风向东南
能见度10公里或以上
多云层高于3000英尺

TAF: KCBM 111700Z 1117/1223 35006KT 9999 SKC QNH3045INS BECMG 1214/1215 11012G18KT 9999 SKC QNH3030INS BECMG 1221/1222 13006KT 9999 BKN030 QNH3027INS TX10/1120Z TN00/1212Z

超过4000个机场的气象观测和天气预报(METAR&TAF报告)。

可查询的气象台以黄色和红色小点在地图上表示。

将鼠标移到小点上方,可查看气象台名称。

然后点击查看天气观测和预报。

如需切换地图:点击带黑十字的绿色按钮放大地图;点击带横线的绿色按钮缩小地图;或者点击绿色箭头查看邻近地区的地图。


METAR-TAF: